sensor_id;sensor_type;location;lat;lon;timestamp;P1;durP1;ratioP1;P2;durP2;ratioP2
45887;SDS011;31595;51.418;7.572;2022-09-29T00:00:31;5.32;;;4.55;;
45887;SDS011;31595;51.418;7.572;2022-09-29T00:02:59;5.80;;;4.75;;
45887;SDS011;31595;51.418;7.572;2022-09-29T00:05:27;5.50;;;4.40;;
45887;SDS011;31595;51.418;7.572;2022-09-29T00:07:56;4.97;;;4.40;;
45887;SDS011;31595;51.418;7.572;2022-09-29T00:10:23;6.53;;;5.43;;
45887;SDS011;31595;51.418;7.572;2022-09-29T00:12:51;5.97;;;3.90;;
45887;SDS011;31595;51.418;7.572;2022-09-29T00:15:19;4.90;;;4.28;;
45887;SDS011;31595;51.418;7.572;2022-09-29T00:17:46;5.28;;;4.32;;
45887;SDS011;31595;51.418;7.572;2022-09-29T00:20:13;6.05;;;4.55;;
45887;SDS011;31595;51.418;7.572;2022-09-29T00:22:41;4.57;;;3.97;;
45887;SDS011;31595;51.418;7.572;2022-09-29T00:25:10;4.53;;;4.13;;
45887;SDS011;31595;51.418;7.572;2022-09-29T00:27:37;6.00;;;4.85;;
45887;SDS011;31595;51.418;7.572;2022-09-29T00:30:07;5.72;;;5.10;;
45887;SDS011;31595;51.418;7.572;2022-09-29T00:32:35;4.32;;;3.92;;
45887;SDS011;31595;51.418;7.572;2022-09-29T00:35:03;8.40;;;4.70;;
45887;SDS011;31595;51.418;7.572;2022-09-29T00:37:33;5.15;;;4.20;;
45887;SDS011;31595;51.418;7.572;2022-09-29T00:40:00;6.20;;;4.70;;
45887;SDS011;31595;51.418;7.572;2022-09-29T00:42:30;5.07;;;4.15;;
45887;SDS011;31595;51.418;7.572;2022-09-29T00:45:04;4.75;;;4.20;;
45887;SDS011;31595;51.418;7.572;2022-09-29T00:47:38;5.80;;;4.90;;
45887;SDS011;31595;51.418;7.572;2022-09-29T00:50:10;5.40;;;4.55;;
45887;SDS011;31595;51.418;7.572;2022-09-29T00:52:40;5.63;;;4.68;;
45887;SDS011;31595;51.418;7.572;2022-09-29T00:55:13;4.47;;;3.92;;
45887;SDS011;31595;51.418;7.572;2022-09-29T00:57:46;5.93;;;4.32;;
45887;SDS011;31595;51.418;7.572;2022-09-29T01:00:16;5.65;;;4.25;;
45887;SDS011;31595;51.418;7.572;2022-09-29T01:02:44;4.93;;;4.28;;
45887;SDS011;31595;51.418;7.572;2022-09-29T01:05:16;5.45;;;4.38;;
45887;SDS011;31595;51.418;7.572;2022-09-29T01:07:47;5.18;;;3.85;;
45887;SDS011;31595;51.418;7.572;2022-09-29T01:10:15;7.10;;;4.25;;
45887;SDS011;31595;51.418;7.572;2022-09-29T01:12:45;5.40;;;4.40;;
45887;SDS011;31595;51.418;7.572;2022-09-29T01:15:15;6.22;;;4.07;;
45887;SDS011;31595;51.418;7.572;2022-09-29T01:17:45;5.45;;;4.20;;
45887;SDS011;31595;51.418;7.572;2022-09-29T01:20:14;7.53;;;4.70;;
45887;SDS011;31595;51.418;7.572;2022-09-29T01:22:49;6.07;;;4.28;;
45887;SDS011;31595;51.418;7.572;2022-09-29T01:25:47;5.70;;;4.47;;
45887;SDS011;31595;51.418;7.572;2022-09-29T01:28:32;8.38;;;4.95;;
45887;SDS011;31595;51.418;7.572;2022-09-29T01:31:25;5.85;;;4.57;;
45887;SDS011;31595;51.418;7.572;2022-09-29T01:33:59;6.05;;;4.32;;
45887;SDS011;31595;51.418;7.572;2022-09-29T01:36:35;6.85;;;4.85;;
45887;SDS011;31595;51.418;7.572;2022-09-29T01:39:16;7.00;;;4.18;;
45887;SDS011;31595;51.418;7.572;2022-09-29T01:41:52;7.72;;;5.18;;
45887;SDS011;31595;51.418;7.572;2022-09-29T01:44:25;7.22;;;5.43;;
45887;SDS011;31595;51.418;7.572;2022-09-29T01:46:57;5.40;;;4.50;;
45887;SDS011;31595;51.418;7.572;2022-09-29T01:49:30;6.25;;;4.78;;
45887;SDS011;31595;51.418;7.572;2022-09-29T01:52:01;6.65;;;4.72;;
45887;SDS011;31595;51.418;7.572;2022-09-29T01:54:34;6.80;;;5.10;;
45887;SDS011;31595;51.418;7.572;2022-09-29T01:57:07;5.53;;;4.80;;
45887;SDS011;31595;51.418;7.572;2022-09-29T01:59:40;6.80;;;5.20;;
45887;SDS011;31595;51.418;7.572;2022-09-29T02:02:14;6.50;;;5.15;;
45887;SDS011;31595;51.418;7.572;2022-09-29T02:04:47;6.55;;;5.03;;
45887;SDS011;31595;51.418;7.572;2022-09-29T02:07:20;9.23;;;5.97;;
45887;SDS011;31595;51.418;7.572;2022-09-29T02:09:54;7.13;;;6.00;;
45887;SDS011;31595;51.418;7.572;2022-09-29T02:12:26;7.75;;;5.47;;
45887;SDS011;31595;51.418;7.572;2022-09-29T02:14:56;7.25;;;5.07;;
45887;SDS011;31595;51.418;7.572;2022-09-29T02:17:28;8.25;;;6.00;;
45887;SDS011;31595;51.418;7.572;2022-09-29T02:19:59;8.68;;;5.85;;
45887;SDS011;31595;51.418;7.572;2022-09-29T02:22:26;6.88;;;5.30;;
45887;SDS011;31595;51.418;7.572;2022-09-29T02:24:54;7.28;;;5.53;;
45887;SDS011;31595;51.418;7.572;2022-09-29T02:27:24;6.13;;;5.45;;
45887;SDS011;31595;51.418;7.572;2022-09-29T02:29:53;6.88;;;5.68;;
45887;SDS011;31595;51.418;7.572;2022-09-29T02:32:21;6.72;;;5.70;;
45887;SDS011;31595;51.418;7.572;2022-09-29T02:34:49;7.07;;;5.50;;
45887;SDS011;31595;51.418;7.572;2022-09-29T02:37:26;7.25;;;5.88;;
45887;SDS011;31595;51.418;7.572;2022-09-29T02:40:10;7.85;;;5.88;;
45887;SDS011;31595;51.418;7.572;2022-09-29T02:42:51;7.82;;;5.80;;
45887;SDS011;31595;51.418;7.572;2022-09-29T02:45:35;9.43;;;5.97;;
45887;SDS011;31595;51.418;7.572;2022-09-29T02:48:16;7.85;;;5.93;;
45887;SDS011;31595;51.418;7.572;2022-09-29T02:50:59;9.27;;;6.07;;
45887;SDS011;31595;51.418;7.572;2022-09-29T02:53:38;7.70;;;6.88;;
45887;SDS011;31595;51.418;7.572;2022-09-29T02:56:19;8.23;;;6.47;;
45887;SDS011;31595;51.418;7.572;2022-09-29T02:58:56;8.52;;;6.68;;
45887;SDS011;31595;51.418;7.572;2022-09-29T03:01:29;9.00;;;6.93;;
45887;SDS011;31595;51.418;7.572;2022-09-29T03:03:57;6.78;;;6.03;;
45887;SDS011;31595;51.418;7.572;2022-09-29T03:06:26;7.93;;;6.55;;
45887;SDS011;31595;51.418;7.572;2022-09-29T03:08:54;9.00;;;6.95;;
45887;SDS011;31595;51.418;7.572;2022-09-29T03:11:21;7.72;;;6.03;;
45887;SDS011;31595;51.418;7.572;2022-09-29T03:13:48;8.82;;;6.75;;
45887;SDS011;31595;51.418;7.572;2022-09-29T03:16:16;8.40;;;7.15;;
45887;SDS011;31595;51.418;7.572;2022-09-29T03:18:43;8.60;;;7.00;;
45887;SDS011;31595;51.418;7.572;2022-09-29T03:21:10;10.18;;;6.65;;
45887;SDS011;31595;51.418;7.572;2022-09-29T03:23:39;8.05;;;6.07;;
45887;SDS011;31595;51.418;7.572;2022-09-29T03:26:06;9.82;;;7.32;;
45887;SDS011;31595;51.418;7.572;2022-09-29T03:28:34;9.13;;;7.25;;
45887;SDS011;31595;51.418;7.572;2022-09-29T03:31:04;14.68;;;6.93;;
45887;SDS011;31595;51.418;7.572;2022-09-29T03:33:34;8.00;;;6.65;;
45887;SDS011;31595;51.418;7.572;2022-09-29T03:36:01;8.00;;;6.38;;
45887;SDS011;31595;51.418;7.572;2022-09-29T03:38:30;9.75;;;7.20;;
45887;SDS011;31595;51.418;7.572;2022-09-29T03:40:59;10.07;;;7.30;;
45887;SDS011;31595;51.418;7.572;2022-09-29T03:43:26;10.48;;;7.10;;
45887;SDS011;31595;51.418;7.572;2022-09-29T03:45:54;12.68;;;7.65;;
45887;SDS011;31595;51.418;7.572;2022-09-29T03:48:22;9.98;;;6.97;;
45887;SDS011;31595;51.418;7.572;2022-09-29T03:50:50;10.57;;;6.63;;
45887;SDS011;31595;51.418;7.572;2022-09-29T03:53:18;7.75;;;6.60;;
45887;SDS011;31595;51.418;7.572;2022-09-29T03:55:45;9.60;;;6.97;;
45887;SDS011;31595;51.418;7.572;2022-09-29T03:58:15;8.95;;;6.45;;
45887;SDS011;31595;51.418;7.572;2022-09-29T04:00:43;6.88;;;6.03;;
45887;SDS011;31595;51.418;7.572;2022-09-29T04:03:11;8.13;;;6.00;;
45887;SDS011;31595;51.418;7.572;2022-09-29T04:05:38;7.03;;;5.28;;
45887;SDS011;31595;51.418;7.572;2022-09-29T04:08:05;5.97;;;4.60;;
45887;SDS011;31595;51.418;7.572;2022-09-29T04:10:33;8.32;;;5.30;;
45887;SDS011;31595;51.418;7.572;2022-09-29T04:13:00;6.70;;;4.85;;
45887;SDS011;31595;51.418;7.572;2022-09-29T04:15:29;7.25;;;5.38;;
45887;SDS011;31595;51.418;7.572;2022-09-29T04:17:56;8.80;;;6.30;;
45887;SDS011;31595;51.418;7.572;2022-09-29T04:20:24;9.18;;;5.47;;
45887;SDS011;31595;51.418;7.572;2022-09-29T04:22:52;6.80;;;4.93;;
45887;SDS011;31595;51.418;7.572;2022-09-29T04:25:19;6.03;;;3.85;;
45887;SDS011;31595;51.418;7.572;2022-09-29T04:27:46;5.88;;;4.18;;
45887;SDS011;31595;51.418;7.572;2022-09-29T04:30:14;5.25;;;4.18;;
45887;SDS011;31595;51.418;7.572;2022-09-29T04:32:43;4.35;;;3.70;;
45887;SDS011;31595;51.418;7.572;2022-09-29T04:35:10;5.53;;;3.78;;
45887;SDS011;31595;51.418;7.572;2022-09-29T04:37:37;4.72;;;3.50;;
45887;SDS011;31595;51.418;7.572;2022-09-29T04:40:05;5.82;;;4.28;;
45887;SDS011;31595;51.418;7.572;2022-09-29T04:42:32;6.57;;;5.75;;
45887;SDS011;31595;51.418;7.572;2022-09-29T04:45:00;7.78;;;4.75;;
45887;SDS011;31595;51.418;7.572;2022-09-29T04:47:27;8.65;;;6.68;;
45887;SDS011;31595;51.418;7.572;2022-09-29T04:49:56;9.13;;;6.45;;
45887;SDS011;31595;51.418;7.572;2022-09-29T04:52:24;10.32;;;6.70;;
45887;SDS011;31595;51.418;7.572;2022-09-29T04:54:51;7.00;;;5.20;;
45887;SDS011;31595;51.418;7.572;2022-09-29T04:57:18;5.50;;;4.00;;
45887;SDS011;31595;51.418;7.572;2022-09-29T04:59:45;6.22;;;4.55;;
45887;SDS011;31595;51.418;7.572;2022-09-29T05:02:16;6.18;;;5.00;;
45887;SDS011;31595;51.418;7.572;2022-09-29T05:04:44;8.70;;;5.88;;
45887;SDS011;31595;51.418;7.572;2022-09-29T05:07:13;7.18;;;5.45;;
45887;SDS011;31595;51.418;7.572;2022-09-29T05:09:41;7.22;;;5.40;;
45887;SDS011;31595;51.418;7.572;2022-09-29T05:12:08;11.10;;;6.78;;
45887;SDS011;31595;51.418;7.572;2022-09-29T05:14:35;9.18;;;6.90;;
45887;SDS011;31595;51.418;7.572;2022-09-29T05:17:03;9.73;;;6.70;;
45887;SDS011;31595;51.418;7.572;2022-09-29T05:19:31;8.80;;;6.40;;
45887;SDS011;31595;51.418;7.572;2022-09-29T05:21:59;10.60;;;6.47;;
45887;SDS011;31595;51.418;7.572;2022-09-29T05:24:27;8.63;;;6.18;;
45887;SDS011;31595;51.418;7.572;2022-09-29T05:26:55;9.60;;;6.40;;
45887;SDS011;31595;51.418;7.572;2022-09-29T05:29:22;8.90;;;6.55;;
45887;SDS011;31595;51.418;7.572;2022-09-29T05:31:49;12.57;;;6.53;;
45887;SDS011;31595;51.418;7.572;2022-09-29T05:34:17;8.73;;;6.65;;
45887;SDS011;31595;51.418;7.572;2022-09-29T05:36:44;9.13;;;5.82;;
45887;SDS011;31595;51.418;7.572;2022-09-29T05:39:11;7.32;;;6.13;;
45887;SDS011;31595;51.418;7.572;2022-09-29T05:41:40;9.13;;;6.15;;
45887;SDS011;31595;51.418;7.572;2022-09-29T05:44:07;9.27;;;6.15;;
45887;SDS011;31595;51.418;7.572;2022-09-29T05:46:34;12.07;;;6.32;;
45887;SDS011;31595;51.418;7.572;2022-09-29T05:49:02;6.80;;;5.45;;
45887;SDS011;31595;51.418;7.572;2022-09-29T05:51:29;10.45;;;6.55;;
45887;SDS011;31595;51.418;7.572;2022-09-29T05:53:56;8.30;;;6.32;;
45887;SDS011;31595;51.418;7.572;2022-09-29T05:56:26;9.93;;;6.88;;
45887;SDS011;31595;51.418;7.572;2022-09-29T05:58:55;8.48;;;6.22;;
45887;SDS011;31595;51.418;7.572;2022-09-29T06:01:22;7.45;;;6.28;;
45887;SDS011;31595;51.418;7.572;2022-09-29T06:03:52;10.25;;;6.30;;
45887;SDS011;31595;51.418;7.572;2022-09-29T06:06:20;7.75;;;5.72;;
45887;SDS011;31595;51.418;7.572;2022-09-29T06:08:49;5.80;;;5.20;;
45887;SDS011;31595;51.418;7.572;2022-09-29T06:11:17;7.25;;;5.78;;
45887;SDS011;31595;51.418;7.572;2022-09-29T06:13:46;9.57;;;5.47;;
45887;SDS011;31595;51.418;7.572;2022-09-29T06:16:17;8.80;;;5.35;;
45887;SDS011;31595;51.418;7.572;2022-09-29T06:18:45;7.82;;;5.10;;
45887;SDS011;31595;51.418;7.572;2022-09-29T06:21:15;6.47;;;5.07;;
45887;SDS011;31595;51.418;7.572;2022-09-29T06:23:43;8.77;;;5.63;;
45887;SDS011;31595;51.418;7.572;2022-09-29T06:26:12;8.00;;;4.88;;
45887;SDS011;31595;51.418;7.572;2022-09-29T06:28:40;8.05;;;5.22;;
45887;SDS011;31595;51.418;7.572;2022-09-29T06:31:10;6.70;;;4.63;;
45887;SDS011;31595;51.418;7.572;2022-09-29T06:33:41;5.03;;;4.53;;
45887;SDS011;31595;51.418;7.572;2022-09-29T06:36:10;6.97;;;5.30;;
45887;SDS011;31595;51.418;7.572;2022-09-29T06:39:00;7.65;;;4.75;;
45887;SDS011;31595;51.418;7.572;2022-09-29T06:41:27;5.80;;;4.97;;
45887;SDS011;31595;51.418;7.572;2022-09-29T06:43:55;7.03;;;5.70;;
45887;SDS011;31595;51.418;7.572;2022-09-29T06:46:22;7.57;;;4.88;;
45887;SDS011;31595;51.418;7.572;2022-09-29T06:48:52;6.67;;;4.93;;
45887;SDS011;31595;51.418;7.572;2022-09-29T06:51:20;8.45;;;5.18;;
45887;SDS011;31595;51.418;7.572;2022-09-29T06:53:48;5.53;;;4.40;;
45887;SDS011;31595;51.418;7.572;2022-09-29T06:56:15;5.78;;;3.75;;
45887;SDS011;31595;51.418;7.572;2022-09-29T06:58:43;5.15;;;4.00;;
45887;SDS011;31595;51.418;7.572;2022-09-29T07:01:11;6.28;;;4.45;;
45887;SDS011;31595;51.418;7.572;2022-09-29T07:03:39;6.63;;;5.22;;
45887;SDS011;31595;51.418;7.572;2022-09-29T07:06:08;6.07;;;4.07;;
45887;SDS011;31595;51.418;7.572;2022-09-29T07:08:36;6.93;;;4.65;;
45887;SDS011;31595;51.418;7.572;2022-09-29T07:11:05;6.50;;;4.65;;
45887;SDS011;31595;51.418;7.572;2022-09-29T07:13:32;11.50;;;5.30;;
45887;SDS011;31595;51.418;7.572;2022-09-29T07:16:04;5.88;;;5.28;;
45887;SDS011;31595;51.418;7.572;2022-09-29T07:18:35;6.50;;;5.38;;
45887;SDS011;31595;51.418;7.572;2022-09-29T07:21:03;6.67;;;5.40;;
45887;SDS011;31595;51.418;7.572;2022-09-29T07:23:32;8.60;;;6.25;;
45887;SDS011;31595;51.418;7.572;2022-09-29T07:26:00;7.63;;;5.60;;
45887;SDS011;31595;51.418;7.572;2022-09-29T07:28:27;7.40;;;6.65;;
45887;SDS011;31595;51.418;7.572;2022-09-29T07:30:58;8.70;;;7.03;;
45887;SDS011;31595;51.418;7.572;2022-09-29T07:33:26;9.27;;;6.93;;
45887;SDS011;31595;51.418;7.572;2022-09-29T07:35:54;6.32;;;5.60;;
45887;SDS011;31595;51.418;7.572;2022-09-29T07:38:22;9.20;;;5.77;;
45887;SDS011;31595;51.418;7.572;2022-09-29T07:40:51;6.82;;;4.97;;
45887;SDS011;31595;51.418;7.572;2022-09-29T07:43:18;6.95;;;4.82;;
45887;SDS011;31595;51.418;7.572;2022-09-29T07:45:46;5.65;;;4.82;;
45887;SDS011;31595;51.418;7.572;2022-09-29T07:50:41;6.15;;;5.45;;
45887;SDS011;31595;51.418;7.572;2022-09-29T07:53:10;6.05;;;5.43;;
45887;SDS011;31595;51.418;7.572;2022-09-29T07:55:38;6.05;;;4.95;;
45887;SDS011;31595;51.418;7.572;2022-09-29T07:58:07;6.65;;;5.20;;
45887;SDS011;31595;51.418;7.572;2022-09-29T08:00:34;6.07;;;5.47;;
45887;SDS011;31595;51.418;7.572;2022-09-29T08:03:02;7.60;;;4.88;;
45887;SDS011;31595;51.418;7.572;2022-09-29T08:05:31;5.82;;;4.88;;
45887;SDS011;31595;51.418;7.572;2022-09-29T08:07:59;5.18;;;4.68;;
45887;SDS011;31595;51.418;7.572;2022-09-29T08:10:27;7.30;;;5.05;;
45887;SDS011;31595;51.418;7.572;2022-09-29T08:12:55;5.72;;;4.78;;
45887;SDS011;31595;51.418;7.572;2022-09-29T08:15:24;5.72;;;5.13;;
45887;SDS011;31595;51.418;7.572;2022-09-29T08:17:52;5.78;;;5.28;;
45887;SDS011;31595;51.418;7.572;2022-09-29T08:20:20;6.25;;;5.35;;
45887;SDS011;31595;51.418;7.572;2022-09-29T08:22:48;5.55;;;5.05;;
45887;SDS011;31595;51.418;7.572;2022-09-29T08:25:15;6.18;;;5.32;;
45887;SDS011;31595;51.418;7.572;2022-09-29T08:27:43;5.30;;;4.85;;
45887;SDS011;31595;51.418;7.572;2022-09-29T08:30:11;5.33;;;4.73;;
45887;SDS011;31595;51.418;7.572;2022-09-29T08:32:40;5.33;;;4.83;;
45887;SDS011;31595;51.418;7.572;2022-09-29T08:37:34;4.85;;;4.13;;
45887;SDS011;31595;51.418;7.572;2022-09-29T08:40:03;5.22;;;4.55;;
45887;SDS011;31595;51.418;7.572;2022-09-29T08:42:37;4.97;;;4.47;;
45887;SDS011;31595;51.418;7.572;2022-09-29T08:45:16;4.88;;;3.35;;
45887;SDS011;31595;51.418;7.572;2022-09-29T08:47:57;4.20;;;3.80;;
45887;SDS011;31595;51.418;7.572;2022-09-29T08:50:32;4.53;;;4.03;;
45887;SDS011;31595;51.418;7.572;2022-09-29T08:53:07;5.22;;;4.32;;
45887;SDS011;31595;51.418;7.572;2022-09-29T08:55:40;5.55;;;4.22;;
45887;SDS011;31595;51.418;7.572;2022-09-29T08:58:12;3.97;;;3.58;;
45887;SDS011;31595;51.418;7.572;2022-09-29T09:00:42;10.43;;;3.65;;
45887;SDS011;31595;51.418;7.572;2022-09-29T09:03:37;5.22;;;4.22;;
45887;SDS011;31595;51.418;7.572;2022-09-29T09:06:25;4.72;;;3.72;;
45887;SDS011;31595;51.418;7.572;2022-09-29T09:09:12;3.72;;;3.40;;
45887;SDS011;31595;51.418;7.572;2022-09-29T09:14:55;5.38;;;3.40;;
45887;SDS011;31595;51.418;7.572;2022-09-29T09:17:38;4.65;;;3.30;;
45887;SDS011;31595;51.418;7.572;2022-09-29T09:20:25;3.25;;;2.95;;
45887;SDS011;31595;51.418;7.572;2022-09-29T09:22:58;4.47;;;3.30;;
45887;SDS011;31595;51.418;7.572;2022-09-29T09:25:28;6.38;;;3.60;;
45887;SDS011;31595;51.418;7.572;2022-09-29T09:28:00;4.72;;;3.20;;
45887;SDS011;31595;51.418;7.572;2022-09-29T09:30:33;4.82;;;3.25;;
45887;SDS011;31595;51.418;7.572;2022-09-29T09:33:06;4.05;;;3.55;;
45887;SDS011;31595;51.418;7.572;2022-09-29T09:35:41;3.40;;;2.92;;
45887;SDS011;31595;51.418;7.572;2022-09-29T09:38:14;4.40;;;3.58;;
45887;SDS011;31595;51.418;7.572;2022-09-29T09:40:45;3.85;;;3.10;;
45887;SDS011;31595;51.418;7.572;2022-09-29T09:43:15;4.88;;;4.32;;
45887;SDS011;31595;51.418;7.572;2022-09-29T09:45:48;4.25;;;3.55;;
45887;SDS011;31595;51.418;7.572;2022-09-29T09:48:24;4.20;;;3.80;;
45887;SDS011;31595;51.418;7.572;2022-09-29T09:50:58;5.18;;;3.72;;
45887;SDS011;31595;51.418;7.572;2022-09-29T09:53:28;3.90;;;3.05;;
45887;SDS011;31595;51.418;7.572;2022-09-29T09:56:04;3.92;;;3.63;;
45887;SDS011;31595;51.418;7.572;2022-09-29T09:58:46;4.30;;;3.53;;
45887;SDS011;31595;51.418;7.572;2022-09-29T10:01:35;4.20;;;3.60;;
45887;SDS011;31595;51.418;7.572;2022-09-29T10:04:02;6.55;;;3.80;;
45887;SDS011;31595;51.418;7.572;2022-09-29T10:06:31;4.50;;;3.05;;
45887;SDS011;31595;51.418;7.572;2022-09-29T10:08:59;4.43;;;3.58;;
45887;SDS011;31595;51.418;7.572;2022-09-29T10:11:27;4.97;;;3.38;;
45887;SDS011;31595;51.418;7.572;2022-09-29T10:13:57;4.00;;;3.38;;
45887;SDS011;31595;51.418;7.572;2022-09-29T10:16:31;4.90;;;3.70;;
45887;SDS011;31595;51.418;7.572;2022-09-29T10:19:06;4.33;;;3.60;;
45887;SDS011;31595;51.418;7.572;2022-09-29T10:21:38;3.72;;;3.33;;
45887;SDS011;31595;51.418;7.572;2022-09-29T10:24:19;3.60;;;2.95;;
45887;SDS011;31595;51.418;7.572;2022-09-29T10:26:49;3.72;;;3.28;;
45887;SDS011;31595;51.418;7.572;2022-09-29T10:29:21;3.72;;;2.67;;
45887;SDS011;31595;51.418;7.572;2022-09-29T10:32:04;3.78;;;2.88;;
45887;SDS011;31595;51.418;7.572;2022-09-29T10:34:33;3.90;;;2.83;;
45887;SDS011;31595;51.418;7.572;2022-09-29T10:37:04;3.55;;;3.22;;
45887;SDS011;31595;51.418;7.572;2022-09-29T10:39:45;4.38;;;3.60;;
45887;SDS011;31595;51.418;7.572;2022-09-29T10:44:49;3.85;;;2.80;;
45887;SDS011;31595;51.418;7.572;2022-09-29T10:47:18;3.60;;;3.10;;
45887;SDS011;31595;51.418;7.572;2022-09-29T10:49:47;4.35;;;3.45;;
45887;SDS011;31595;51.418;7.572;2022-09-29T10:52:34;4.28;;;3.05;;
45887;SDS011;31595;51.418;7.572;2022-09-29T10:55:02;4.22;;;2.70;;
45887;SDS011;31595;51.418;7.572;2022-09-29T10:57:31;4.65;;;1.98;;
45887;SDS011;31595;51.418;7.572;2022-09-29T11:00:02;4.75;;;1.98;;
45887;SDS011;31595;51.418;7.572;2022-09-29T11:02:32;3.20;;;1.98;;
45887;SDS011;31595;51.418;7.572;2022-09-29T11:05:03;3.00;;;1.92;;
45887;SDS011;31595;51.418;7.572;2022-09-29T11:07:44;2.38;;;2.05;;
45887;SDS011;31595;51.418;7.572;2022-09-29T11:10:25;2.42;;;2.05;;
45887;SDS011;31595;51.418;7.572;2022-09-29T11:12:54;2.67;;;2.13;;
45887;SDS011;31595;51.418;7.572;2022-09-29T11:15:24;4.47;;;2.00;;
45887;SDS011;31595;51.418;7.572;2022-09-29T11:17:53;5.75;;;2.50;;
45887;SDS011;31595;51.418;7.572;2022-09-29T11:20:22;2.72;;;1.77;;
45887;SDS011;31595;51.418;7.572;2022-09-29T11:25:55;4.88;;;2.47;;
45887;SDS011;31595;51.418;7.572;2022-09-29T11:28:38;2.25;;;1.83;;
45887;SDS011;31595;51.418;7.572;2022-09-29T11:31:22;3.10;;;2.00;;
45887;SDS011;31595;51.418;7.572;2022-09-29T11:34:13;2.42;;;1.70;;
45887;SDS011;31595;51.418;7.572;2022-09-29T11:36:56;2.30;;;1.70;;
45887;SDS011;31595;51.418;7.572;2022-09-29T11:39:36;2.58;;;2.05;;
45887;SDS011;31595;51.418;7.572;2022-09-29T11:42:16;2.92;;;1.70;;
45887;SDS011;31595;51.418;7.572;2022-09-29T11:44:57;3.17;;;1.80;;
45887;SDS011;31595;51.418;7.572;2022-09-29T11:47:33;3.50;;;2.03;;
45887;SDS011;31595;51.418;7.572;2022-09-29T11:50:29;3.70;;;1.80;;
45887;SDS011;31595;51.418;7.572;2022-09-29T11:53:12;3.38;;;1.83;;
45887;SDS011;31595;51.418;7.572;2022-09-29T11:55:58;4.13;;;2.03;;
45887;SDS011;31595;51.418;7.572;2022-09-29T11:58:37;3.80;;;1.92;;
45887;SDS011;31595;51.418;7.572;2022-09-29T12:01:28;3.30;;;2.00;;
45887;SDS011;31595;51.418;7.572;2022-09-29T12:04:07;2.72;;;1.58;;
45887;SDS011;31595;51.418;7.572;2022-09-29T12:06:53;3.03;;;1.90;;
45887;SDS011;31595;51.418;7.572;2022-09-29T12:09:34;3.33;;;1.77;;
45887;SDS011;31595;51.418;7.572;2022-09-29T12:12:17;4.43;;;1.77;;
45887;SDS011;31595;51.418;7.572;2022-09-29T12:17:42;4.90;;;2.28;;
45887;SDS011;31595;51.418;7.572;2022-09-29T12:20:15;2.75;;;2.08;;
45887;SDS011;31595;51.418;7.572;2022-09-29T12:22:47;3.47;;;2.10;;
45887;SDS011;31595;51.418;7.572;2022-09-29T12:25:17;4.03;;;2.00;;
45887;SDS011;31595;51.418;7.572;2022-09-29T12:27:51;3.17;;;1.80;;
45887;SDS011;31595;51.418;7.572;2022-09-29T12:30:23;3.63;;;2.25;;
45887;SDS011;31595;51.418;7.572;2022-09-29T12:32:55;4.88;;;1.90;;
45887;SDS011;31595;51.418;7.572;2022-09-29T12:35:28;2.67;;;1.60;;
45887;SDS011;31595;51.418;7.572;2022-09-29T12:38:04;3.97;;;1.80;;
45887;SDS011;31595;51.418;7.572;2022-09-29T12:40:41;2.22;;;1.60;;
45887;SDS011;31595;51.418;7.572;2022-09-29T12:43:16;2.55;;;1.23;;
45887;SDS011;31595;51.418;7.572;2022-09-29T12:45:51;2.38;;;1.20;;
45887;SDS011;31595;51.418;7.572;2022-09-29T12:48:30;2.45;;;1.40;;
45887;SDS011;31595;51.418;7.572;2022-09-29T12:51:11;2.55;;;1.40;;
45887;SDS011;31595;51.418;7.572;2022-09-29T12:53:50;3.33;;;1.83;;
45887;SDS011;31595;51.418;7.572;2022-09-29T12:56:28;5.13;;;1.63;;
45887;SDS011;31595;51.418;7.572;2022-09-29T12:59:02;2.92;;;1.35;;
45887;SDS011;31595;51.418;7.572;2022-09-29T13:01:34;4.57;;;1.60;;
45887;SDS011;31595;51.418;7.572;2022-09-29T13:07:10;3.10;;;1.35;;
45887;SDS011;31595;51.418;7.572;2022-09-29T13:10:03;2.60;;;1.40;;
45887;SDS011;31595;51.418;7.572;2022-09-29T13:12:51;2.40;;;1.15;;
45887;SDS011;31595;51.418;7.572;2022-09-29T13:15:37;3.78;;;1.73;;
45887;SDS011;31595;51.418;7.572;2022-09-29T13:18:21;2.20;;;1.20;;
45887;SDS011;31595;51.418;7.572;2022-09-29T13:21:12;3.08;;;1.70;;
45887;SDS011;31595;51.418;7.572;2022-09-29T13:23:54;3.53;;;1.40;;
45887;SDS011;31595;51.418;7.572;2022-09-29T13:26:35;2.80;;;1.38;;
45887;SDS011;31595;51.418;7.572;2022-09-29T13:29:09;2.03;;;1.10;;
45887;SDS011;31595;51.418;7.572;2022-09-29T13:31:41;2.50;;;1.20;;
45887;SDS011;31595;51.418;7.572;2022-09-29T13:34:16;2.83;;;1.30;;
45887;SDS011;31595;51.418;7.572;2022-09-29T13:36:51;3.58;;;1.20;;
45887;SDS011;31595;51.418;7.572;2022-09-29T13:39:20;2.08;;;1.10;;
45887;SDS011;31595;51.418;7.572;2022-09-29T13:41:52;3.60;;;1.67;;
45887;SDS011;31595;51.418;7.572;2022-09-29T13:44:22;2.88;;;1.92;;
45887;SDS011;31595;51.418;7.572;2022-09-29T13:46:55;2.90;;;1.60;;
45887;SDS011;31595;51.418;7.572;2022-09-29T13:49:23;2.00;;;1.42;;
45887;SDS011;31595;51.418;7.572;2022-09-29T13:51:53;4.35;;;2.00;;
45887;SDS011;31595;51.418;7.572;2022-09-29T13:54:29;3.38;;;1.45;;
45887;SDS011;31595;51.418;7.572;2022-09-29T14:02:48;3.60;;;1.42;;
45887;SDS011;31595;51.418;7.572;2022-09-29T14:05:38;4.72;;;1.50;;
45887;SDS011;31595;51.418;7.572;2022-09-29T14:08:17;1.92;;;1.40;;
45887;SDS011;31595;51.418;7.572;2022-09-29T14:10:49;2.40;;;1.60;;
45887;SDS011;31595;51.418;7.572;2022-09-29T14:13:22;2.50;;;1.92;;
45887;SDS011;31595;51.418;7.572;2022-09-29T14:15:55;3.30;;;1.52;;
45887;SDS011;31595;51.418;7.572;2022-09-29T14:18:34;2.20;;;1.40;;
45887;SDS011;31595;51.418;7.572;2022-09-29T14:21:07;2.50;;;1.58;;
45887;SDS011;31595;51.418;7.572;2022-09-29T14:23:46;3.15;;;1.50;;
45887;SDS011;31595;51.418;7.572;2022-09-29T14:29:13;3.97;;;1.55;;
45887;SDS011;31595;51.418;7.572;2022-09-29T14:31:45;2.00;;;1.27;;
45887;SDS011;31595;51.418;7.572;2022-09-29T14:34:17;3.80;;;1.25;;
45887;SDS011;31595;51.418;7.572;2022-09-29T14:36:48;3.88;;;1.88;;
45887;SDS011;31595;51.418;7.572;2022-09-29T14:39:19;2.45;;;1.15;;
45887;SDS011;31595;51.418;7.572;2022-09-29T14:41:48;3.78;;;1.80;;
45887;SDS011;31595;51.418;7.572;2022-09-29T14:44:17;3.10;;;1.50;;
45887;SDS011;31595;51.418;7.572;2022-09-29T14:47:00;2.95;;;1.20;;
45887;SDS011;31595;51.418;7.572;2022-09-29T14:50:13;1.90;;;1.10;;
45887;SDS011;31595;51.418;7.572;2022-09-29T14:53:24;2.50;;;1.58;;
45887;SDS011;31595;51.418;7.572;2022-09-29T14:56:03;3.60;;;1.42;;
45887;SDS011;31595;51.418;7.572;2022-09-29T14:58:45;2.22;;;1.30;;
45887;SDS011;31595;51.418;7.572;2022-09-29T15:01:25;3.00;;;1.13;;
45887;SDS011;31595;51.418;7.572;2022-09-29T15:03:54;2.78;;;1.35;;
45887;SDS011;31595;51.418;7.572;2022-09-29T15:06:25;1.83;;;1.13;;
45887;SDS011;31595;51.418;7.572;2022-09-29T15:08:55;2.85;;;1.25;;
45887;SDS011;31595;51.418;7.572;2022-09-29T15:11:25;3.53;;;1.50;;
45887;SDS011;31595;51.418;7.572;2022-09-29T15:14:01;3.17;;;1.38;;
45887;SDS011;31595;51.418;7.572;2022-09-29T15:16:31;2.95;;;1.10;;
45887;SDS011;31595;51.418;7.572;2022-09-29T15:19:15;2.33;;;1.38;;
45887;SDS011;31595;51.418;7.572;2022-09-29T15:21:59;2.63;;;1.60;;
45887;SDS011;31595;51.418;7.572;2022-09-29T15:24:40;3.05;;;1.30;;
45887;SDS011;31595;51.418;7.572;2022-09-29T15:27:16;4.95;;;1.67;;
45887;SDS011;31595;51.418;7.572;2022-09-29T15:29:46;2.78;;;1.30;;
45887;SDS011;31595;51.418;7.572;2022-09-29T15:32:17;2.72;;;1.30;;
45887;SDS011;31595;51.418;7.572;2022-09-29T15:34:48;2.85;;;1.60;;
45887;SDS011;31595;51.418;7.572;2022-09-29T15:37:18;2.85;;;1.35;;
45887;SDS011;31595;51.418;7.572;2022-09-29T15:42:16;3.30;;;1.30;;
45887;SDS011;31595;51.418;7.572;2022-09-29T15:44:52;2.85;;;1.50;;
45887;SDS011;31595;51.418;7.572;2022-09-29T15:47:27;2.60;;;1.20;;
45887;SDS011;31595;51.418;7.572;2022-09-29T15:50:02;4.20;;;1.52;;